createdAt,value
2024-05-09T00:00:42.364Z,100
2024-05-09T00:01:45.019Z,100
2024-05-09T00:02:47.295Z,100
2024-05-09T00:03:49.880Z,100
2024-05-09T00:04:52.663Z,100
2024-05-09T00:05:54.858Z,100
2024-05-09T00:06:56.780Z,100
2024-05-09T00:07:58.793Z,100
2024-05-09T00:09:00.859Z,100
2024-05-09T00:10:05.506Z,100
2024-05-09T00:11:27.615Z,100
2024-05-09T00:12:30.079Z,100
2024-05-09T00:13:32.176Z,100
2024-05-09T00:14:34.069Z,100
2024-05-09T00:15:37.674Z,100
2024-05-09T00:16:39.464Z,100
2024-05-09T00:17:42.423Z,100
2024-05-09T00:18:45.393Z,100
2024-05-09T00:19:47.722Z,100
2024-05-09T00:20:50.084Z,100
2024-05-09T00:21:52.132Z,100
2024-05-09T00:22:53.979Z,100
2024-05-09T00:23:55.939Z,100
2024-05-09T00:24:57.436Z,100
2024-05-09T00:25:59.240Z,100
2024-05-09T00:27:01.078Z,100
2024-05-09T00:28:02.586Z,100
2024-05-09T00:29:04.565Z,100
2024-05-09T00:30:17.766Z,100
2024-05-09T00:31:38.296Z,100
2024-05-09T00:32:40.281Z,100
2024-05-09T00:33:43.630Z,100
2024-05-09T00:34:46.405Z,100
2024-05-09T00:35:48.433Z,100
2024-05-09T00:36:49.921Z,100
2024-05-09T00:37:51.666Z,100
2024-05-09T00:38:53.530Z,100
2024-05-09T00:39:55.103Z,100
2024-05-09T00:40:56.751Z,100
2024-05-09T00:41:58.506Z,100
2024-05-09T00:43:00.242Z,100
2024-05-09T00:44:02.052Z,100
2024-05-09T00:45:04.265Z,100
2024-05-09T00:46:05.745Z,100
2024-05-09T00:47:08.233Z,100
2024-05-09T00:48:18.566Z,100
2024-05-09T00:49:24.334Z,100
2024-05-09T00:50:38.753Z,100
2024-05-09T00:51:42.026Z,100
2024-05-09T00:52:43.941Z,100
2024-05-09T00:53:46.034Z,100
2024-05-09T00:54:48.050Z,100
2024-05-09T00:55:49.804Z,100
2024-05-09T00:56:51.994Z,100
2024-05-09T00:57:53.740Z,100
2024-05-09T00:58:55.914Z,100
2024-05-09T00:59:57.906Z,100
2024-05-09T01:00:59.875Z,100
2024-05-09T01:02:02.434Z,100
2024-05-09T01:03:06.422Z,100
2024-05-09T01:04:10.545Z,100
2024-05-09T01:05:13.682Z,100
2024-05-09T01:06:16.044Z,100
2024-05-09T01:07:18.175Z,100
2024-05-09T01:08:19.902Z,100
2024-05-09T01:09:21.713Z,100
2024-05-09T01:10:36.354Z,100
2024-05-09T01:11:39.377Z,100
2024-05-09T01:12:41.517Z,100
2024-05-09T01:13:43.403Z,100
2024-05-09T01:14:45.420Z,100
2024-05-09T01:15:46.925Z,100
2024-05-09T01:16:48.730Z,100
2024-05-09T01:17:51.957Z,100
2024-05-09T01:18:54.897Z,100
2024-05-09T01:19:57.672Z,100
2024-05-09T01:20:59.932Z,100
2024-05-09T01:22:01.926Z,100
2024-05-09T01:23:03.709Z,100
2024-05-09T01:24:05.723Z,100
2024-05-09T01:25:07.170Z,100
2024-05-09T01:26:08.735Z,100
2024-05-09T01:27:10.565Z,100
2024-05-09T01:28:12.185Z,100
2024-05-09T01:29:14.121Z,100
2024-05-09T01:30:34.463Z,100
2024-05-09T01:31:40.487Z,100
2024-05-09T01:32:42.705Z,100
2024-05-09T01:33:45.942Z,100
2024-05-09T01:34:48.960Z,100
2024-05-09T01:35:50.849Z,100
2024-05-09T01:36:52.542Z,100
2024-05-09T01:37:54.191Z,100
2024-05-09T01:38:56.210Z,100
2024-05-09T01:39:57.669Z,100
2024-05-09T01:40:59.564Z,100
2024-05-09T01:42:01.540Z,100
2024-05-09T01:43:03.038Z,100
2024-05-09T01:44:04.983Z,100
2024-05-09T01:45:07.062Z,100
2024-05-09T01:46:08.603Z,100
2024-05-09T01:47:10.486Z,100
2024-05-09T01:48:13.714Z,100
2024-05-09T01:49:16.825Z,100
2024-05-09T01:50:42.052Z,100
2024-05-09T01:51:45.550Z,100
2024-05-09T01:52:47.203Z,100
2024-05-09T01:53:49.046Z,100
2024-05-09T01:54:50.615Z,100
2024-05-09T01:55:52.769Z,100
2024-05-09T01:56:54.475Z,100
2024-05-09T01:57:56.033Z,100
2024-05-09T01:58:57.742Z,100
2024-05-09T01:59:59.734Z,100
2024-05-09T02:01:02.018Z,100
2024-05-09T02:02:04.977Z,100
2024-05-09T02:03:08.514Z,100
2024-05-09T02:04:13.763Z,100
2024-05-09T02:05:17.172Z,100
2024-05-09T02:06:19.510Z,100
2024-05-09T02:07:21.060Z,100
2024-05-09T02:08:23.160Z,100
2024-05-09T02:09:25.081Z,100
2024-05-09T02:10:34.047Z,100
2024-05-09T02:11:36.186Z,100
2024-05-09T02:12:38.402Z,100
2024-05-09T02:13:39.907Z,100
2024-05-09T02:14:41.511Z,100
2024-05-09T02:15:43.056Z,100
2024-05-09T02:16:44.899Z,100
2024-05-09T02:17:47.750Z,100
2024-05-09T02:18:50.515Z,100
2024-05-09T02:19:53.154Z,100
2024-05-09T02:20:55.279Z,100
2024-05-09T02:21:57.217Z,100
2024-05-09T02:22:58.759Z,100
2024-05-09T02:24:00.596Z,100
2024-05-09T02:25:02.070Z,100
2024-05-09T02:26:03.837Z,100
2024-05-09T02:27:05.971Z,100
2024-05-09T02:28:07.970Z,100
2024-05-09T02:29:09.663Z,100
2024-05-09T02:30:38.922Z,100
2024-05-09T02:31:44.766Z,100
2024-05-09T02:32:47.769Z,100
2024-05-09T02:33:51.470Z,100
2024-05-09T02:34:54.482Z,100
2024-05-09T02:35:56.603Z,100
2024-05-09T02:36:58.090Z,100
2024-05-09T02:38:00.295Z,100
2024-05-09T02:39:02.983Z,100
2024-05-09T02:40:14.574Z,100
2024-05-09T02:41:38.642Z,100
2024-05-09T02:42:40.938Z,100
2024-05-09T02:43:42.399Z,100
2024-05-09T02:44:44.372Z,100
2024-05-09T02:45:45.828Z,100
2024-05-09T02:46:47.594Z,100
2024-05-09T02:47:50.774Z,100
2024-05-09T02:48:53.797Z,100
2024-05-09T02:49:56.100Z,100
2024-05-09T02:50:57.970Z,100
2024-05-09T02:51:59.893Z,100
2024-05-09T02:53:01.867Z,100
2024-05-09T02:54:03.889Z,100
2024-05-09T02:55:05.403Z,100
2024-05-09T02:56:07.333Z,100
2024-05-09T02:57:09.379Z,100
2024-05-09T02:58:11.409Z,100
2024-05-09T02:59:13.603Z,100
2024-05-09T03:00:37.870Z,100
2024-05-09T03:01:45.596Z,100
2024-05-09T03:02:48.510Z,100
2024-05-09T03:03:52.045Z,100
2024-05-09T03:04:55.040Z,100
2024-05-09T03:05:57.443Z,100
2024-05-09T03:06:58.987Z,100
2024-05-09T03:08:00.910Z,100
2024-05-09T03:09:03.158Z,100
2024-05-09T03:10:25.130Z,100
2024-05-09T03:11:39.573Z,100
2024-05-09T03:12:42.365Z,100
2024-05-09T03:13:44.592Z,100
2024-05-09T03:14:46.390Z,100
2024-05-09T03:15:47.922Z,100
2024-05-09T03:16:49.541Z,100
2024-05-09T03:17:52.461Z,100
2024-05-09T03:18:55.289Z,100
2024-05-09T03:19:57.701Z,100
2024-05-09T03:21:00.192Z,100
2024-05-09T03:22:02.450Z,100
2024-05-09T03:23:05.985Z,100
2024-05-09T03:24:08.304Z,100
2024-05-09T03:25:09.817Z,100
2024-05-09T03:26:11.604Z,100
2024-05-09T03:27:13.738Z,100
2024-05-09T03:28:15.385Z,100
2024-05-09T03:29:17.063Z,100
2024-05-09T03:30:42.951Z,100
2024-05-09T03:31:45.503Z,100
2024-05-09T03:32:48.421Z,100
2024-05-09T03:33:51.842Z,100
2024-05-09T03:34:54.681Z,100
2024-05-09T03:35:56.614Z,100
2024-05-09T03:36:58.104Z,100
2024-05-09T03:37:59.926Z,100
2024-05-09T03:39:01.930Z,100
2024-05-09T03:40:09.414Z,100
2024-05-09T03:41:28.420Z,100
2024-05-09T03:42:30.751Z,100
2024-05-09T03:43:32.416Z,100
2024-05-09T03:44:34.213Z,100
2024-05-09T03:45:36.177Z,100
2024-05-09T03:46:37.609Z,100
2024-05-09T03:47:39.730Z,100
2024-05-09T03:48:42.530Z,100
2024-05-09T03:49:44.760Z,100
2024-05-09T03:50:46.950Z,100
2024-05-09T03:51:49.645Z,100
2024-05-09T03:52:51.532Z,100
2024-05-09T03:53:53.668Z,100
2024-05-09T03:54:55.159Z,100
2024-05-09T03:55:56.987Z,100
2024-05-09T03:56:58.964Z,100
2024-05-09T03:58:00.616Z,100
2024-05-09T03:59:02.837Z,100
2024-05-09T04:00:22.473Z,100
2024-05-09T04:01:42.350Z,100
2024-05-09T04:02:45.082Z,100
2024-05-09T04:03:47.992Z,100
2024-05-09T04:04:51.178Z,100
2024-05-09T04:05:53.674Z,100
2024-05-09T04:06:55.499Z,100
2024-05-09T04:07:57.071Z,100
2024-05-09T04:08:59.504Z,100
2024-05-09T04:10:01.085Z,100
2024-05-09T04:11:03.181Z,100
2024-05-09T04:12:06.049Z,100
2024-05-09T04:13:09.027Z,100
2024-05-09T04:14:10.707Z,100
2024-05-09T04:15:14.053Z,100
2024-05-09T04:16:15.505Z,100
2024-05-09T04:17:17.597Z,100
2024-05-09T04:18:19.916Z,100
2024-05-09T04:19:22.662Z,100
2024-05-09T04:20:41.534Z,100
2024-05-09T04:21:43.832Z,100
2024-05-09T04:22:45.796Z,100
2024-05-09T04:23:47.949Z,100
2024-05-09T04:24:49.955Z,100
2024-05-09T04:25:51.678Z,100
2024-05-09T04:26:53.695Z,100
2024-05-09T04:27:56.293Z,100
2024-05-09T04:28:58.042Z,100
2024-05-09T04:30:00.482Z,100
2024-05-09T04:31:02.087Z,100
2024-05-09T04:32:04.027Z,100
2024-05-09T04:33:11.763Z,100
2024-05-09T04:34:17.854Z,100
2024-05-09T04:35:20.429Z,100
2024-05-09T04:36:22.569Z,100
2024-05-09T04:37:24.346Z,100
2024-05-09T04:38:26.234Z,100
2024-05-09T04:39:28.323Z,100
2024-05-09T04:40:38.121Z,100
2024-05-09T04:41:40.849Z,100
2024-05-09T04:42:42.681Z,100
2024-05-09T04:43:44.506Z,100
2024-05-09T04:44:46.447Z,100
2024-05-09T04:45:48.657Z,100
2024-05-09T04:46:50.553Z,100
2024-05-09T04:47:53.126Z,100
2024-05-09T04:48:55.964Z,100
2024-05-09T04:49:58.131Z,100
2024-05-09T04:51:00.401Z,100
2024-05-09T04:52:02.219Z,100
2024-05-09T04:53:04.543Z,100
2024-05-09T04:54:34.234Z,100
2024-05-09T04:55:40.015Z,100
2024-05-09T04:56:42.601Z,100
2024-05-09T04:57:44.650Z,100
2024-05-09T04:58:46.366Z,100
2024-05-09T04:59:48.485Z,100
2024-05-09T05:00:50.367Z,100
2024-05-09T05:01:52.803Z,100
2024-05-09T05:02:57.884Z,100
2024-05-09T05:04:00.761Z,100
2024-05-09T05:05:03.835Z,100
2024-05-09T05:06:06.356Z,100
2024-05-09T05:07:08.153Z,100
2024-05-09T05:08:10.076Z,100
2024-05-09T05:09:12.141Z,100
2024-05-09T05:10:35.670Z,100
2024-05-09T05:11:39.095Z,100
2024-05-09T05:12:41.268Z,100
2024-05-09T05:13:42.910Z,100
2024-05-09T05:14:44.545Z,100
2024-05-09T05:15:45.990Z,100
2024-05-09T05:16:47.849Z,100
2024-05-09T05:17:50.810Z,100
2024-05-09T05:18:54.091Z,100
2024-05-09T05:19:56.672Z,100
2024-05-09T05:20:59.776Z,100
2024-05-09T05:22:01.647Z,100
2024-05-09T05:23:03.502Z,100
2024-05-09T05:24:05.789Z,100
2024-05-09T05:25:07.517Z,100
2024-05-09T05:26:09.263Z,100
2024-05-09T05:27:11.304Z,100
2024-05-09T05:28:12.934Z,100
2024-05-09T05:29:20.700Z,100
2024-05-09T05:30:35.326Z,100
2024-05-09T05:31:37.371Z,100
2024-05-09T05:32:40.166Z,100
2024-05-09T05:33:43.104Z,100
2024-05-09T05:34:45.469Z,100
2024-05-09T05:35:47.439Z,100
2024-05-09T05:36:49.300Z,100
2024-05-09T05:37:51.131Z,100
2024-05-09T05:38:53.408Z,100
2024-05-09T05:39:55.631Z,100
2024-05-09T05:40:57.612Z,100
2024-05-09T05:41:59.717Z,100
2024-05-09T05:43:01.270Z,100
2024-05-09T05:44:03.259Z,100
2024-05-09T05:45:10.124Z,100
2024-05-09T05:46:11.677Z,100
2024-05-09T05:47:13.676Z,100
2024-05-09T05:48:18.156Z,100
2024-05-09T05:49:21.937Z,100
2024-05-09T05:50:38.706Z,100
2024-05-09T05:51:41.318Z,100
2024-05-09T05:52:42.865Z,100
2024-05-09T05:53:44.682Z,100
2024-05-09T05:54:46.686Z,100
2024-05-09T05:55:48.829Z,100
2024-05-09T05:56:50.799Z,100
2024-05-09T05:57:52.672Z,100
2024-05-09T05:58:54.624Z,100
2024-05-09T05:59:56.740Z,100
2024-05-09T06:00:59.564Z,100
2024-05-09T06:02:02.136Z,100
2024-05-09T06:03:05.124Z,100
2024-05-09T06:04:08.609Z,100
2024-05-09T06:05:11.090Z,100
2024-05-09T06:06:13.739Z,100
2024-05-09T06:07:15.833Z,100
2024-05-09T06:08:17.520Z,100
2024-05-09T06:09:19.616Z,100
2024-05-09T06:10:39.312Z,100
2024-05-09T06:11:44.631Z,100
2024-05-09T06:12:46.928Z,100
2024-05-09T06:13:48.686Z,100
2024-05-09T06:14:50.748Z,100
2024-05-09T06:15:52.448Z,100
2024-05-09T06:16:58.771Z,100
2024-05-09T06:18:02.163Z,100
2024-05-09T06:19:05.668Z,100
2024-05-09T06:20:31.850Z,100
2024-05-09T06:21:40.287Z,100
2024-05-09T06:22:41.769Z,100
2024-05-09T06:23:43.575Z,100
2024-05-09T06:24:45.463Z,100
2024-05-09T06:25:47.263Z,100
2024-05-09T06:26:49.460Z,100
2024-05-09T06:27:51.037Z,100
2024-05-09T06:28:52.780Z,100
2024-05-09T06:29:54.797Z,100
2024-05-09T06:30:56.260Z,100
2024-05-09T06:32:01.190Z,100
2024-05-09T06:33:05.269Z,100
2024-05-09T06:34:08.962Z,100
2024-05-09T06:35:11.987Z,100
2024-05-09T06:36:14.016Z,100
2024-05-09T06:37:15.475Z,100
2024-05-09T06:38:17.131Z,100
2024-05-09T06:39:19.168Z,100
2024-05-09T06:40:39.411Z,100
2024-05-09T06:41:42.650Z,100
2024-05-09T06:42:44.531Z,100
2024-05-09T06:43:46.387Z,100
2024-05-09T06:44:48.579Z,100
2024-05-09T06:45:50.613Z,100
2024-05-09T06:46:52.574Z,100
2024-05-09T06:48:01.689Z,100
2024-05-09T06:49:05.315Z,100
2024-05-09T06:50:27.952Z,100
2024-05-09T06:51:41.410Z,100
2024-05-09T06:52:42.856Z,100
2024-05-09T06:53:44.664Z,100
2024-05-09T06:54:46.467Z,100
2024-05-09T06:55:48.461Z,100
2024-05-09T06:56:50.402Z,100
2024-05-09T06:57:52.267Z,100
2024-05-09T06:58:54.227Z,100
2024-05-09T06:59:56.267Z,100
2024-05-09T07:00:58.526Z,100
2024-05-09T07:02:00.266Z,100
2024-05-09T07:03:06.645Z,100
2024-05-09T07:04:10.065Z,100
2024-05-09T07:05:13.103Z,100
2024-05-09T07:06:15.939Z,100
2024-05-09T07:07:18.164Z,100
2024-05-09T07:08:20.196Z,100
2024-05-09T07:09:22.301Z,100
2024-05-09T07:10:36.595Z,100
2024-05-09T07:11:40.273Z,100
2024-05-09T07:12:42.729Z,100
2024-05-09T07:13:44.265Z,100
2024-05-09T07:14:46.449Z,100
2024-05-09T07:15:48.585Z,100
2024-05-09T07:16:50.520Z,100
2024-05-09T07:17:53.656Z,100
2024-05-09T07:18:56.835Z,100
2024-05-09T07:19:59.606Z,100
2024-05-09T07:21:02.165Z,100
2024-05-09T07:22:04.454Z,100
2024-05-09T07:23:06.314Z,100
2024-05-09T07:24:08.184Z,100
2024-05-09T07:25:09.635Z,100
2024-05-09T07:26:11.727Z,100
2024-05-09T07:27:14.489Z,100
2024-05-09T07:28:16.628Z,100
2024-05-09T07:29:19.248Z,100
2024-05-09T07:30:35.220Z,100
2024-05-09T07:31:37.235Z,100
2024-05-09T07:32:39.481Z,100
2024-05-09T07:33:42.362Z,100
2024-05-09T07:34:44.612Z,100
2024-05-09T07:35:47.062Z,100
2024-05-09T07:36:48.952Z,100
2024-05-09T07:37:50.783Z,100
2024-05-09T07:38:53.063Z,100
2024-05-09T07:39:55.336Z,100
2024-05-09T07:40:57.080Z,100
2024-05-09T07:41:59.013Z,100
2024-05-09T07:43:00.531Z,100
2024-05-09T07:44:02.126Z,100
2024-05-09T07:45:52.906Z,100
2024-05-09T07:53:43.929Z,100
2024-05-09T07:54:59.442Z,100
2024-05-09T07:56:02.606Z,100
2024-05-09T07:57:05.656Z,100
2024-05-09T07:58:07.803Z,100
2024-05-09T07:59:09.823Z,100
2024-05-09T08:00:27.025Z,100
2024-05-09T08:01:34.487Z,100
2024-05-09T08:02:36.955Z,100
2024-05-09T08:03:39.776Z,100
2024-05-09T08:04:42.637Z,100
2024-05-09T08:05:45.185Z,100
2024-05-09T08:06:47.365Z,100
2024-05-09T08:07:49.306Z,100
2024-05-09T08:08:50.954Z,100
2024-05-09T08:09:52.761Z,100
2024-05-09T08:10:55.052Z,100
2024-05-09T08:11:57.297Z,100
2024-05-09T08:12:59.642Z,100
2024-05-09T08:14:01.594Z,100
2024-05-09T08:15:03.103Z,100
2024-05-09T08:16:05.157Z,100
2024-05-09T08:17:08.171Z,100
2024-05-09T08:18:11.416Z,100
2024-05-09T08:19:14.645Z,100
2024-05-09T08:20:35.590Z,100
2024-05-09T08:21:37.793Z,100
2024-05-09T08:22:39.700Z,100
2024-05-09T08:23:41.239Z,100
2024-05-09T08:24:43.055Z,100
2024-05-09T08:25:45.040Z,100
2024-05-09T08:26:46.555Z,100
2024-05-09T08:27:48.192Z,100
2024-05-09T08:28:49.960Z,100
2024-05-09T08:29:51.450Z,100
2024-05-09T08:30:53.795Z,100
2024-05-09T08:31:56.688Z,100
2024-05-09T08:32:59.426Z,100
2024-05-09T08:34:02.430Z,100
2024-05-09T08:35:05.050Z,100
2024-05-09T08:36:07.162Z,100
2024-05-09T08:37:24.798Z,100
2024-05-09T08:38:41.013Z,100
2024-05-09T08:39:42.706Z,100
2024-05-09T08:40:45.421Z,100
2024-05-09T08:41:47.733Z,100
2024-05-09T08:42:49.904Z,100
2024-05-09T08:43:51.920Z,100
2024-05-09T08:44:53.391Z,100
2024-05-09T08:45:55.142Z,100
2024-05-09T08:46:57.012Z,100
2024-05-09T08:47:58.874Z,100
2024-05-09T08:49:01.997Z,100
2024-05-09T08:50:23.532Z,100
2024-05-09T08:51:41.736Z,100
2024-05-09T08:52:43.889Z,100
2024-05-09T08:53:45.360Z,100
2024-05-09T08:54:47.213Z,100
2024-05-09T08:55:49.372Z,100
2024-05-09T08:56:50.859Z,100
2024-05-09T08:57:53.013Z,100
2024-05-09T08:58:55.042Z,100
2024-05-09T08:59:56.502Z,100
2024-05-09T09:00:58.506Z,100
2024-05-09T09:02:00.939Z,100
2024-05-09T09:03:03.580Z,100
2024-05-09T09:04:06.343Z,100
2024-05-09T09:05:09.595Z,100
2024-05-09T09:06:12.781Z,100
2024-05-09T09:07:14.639Z,100
2024-05-09T09:08:16.714Z,100
2024-05-09T09:09:18.212Z,100
2024-05-09T09:10:33.687Z,100
2024-05-09T09:11:36.107Z,100
2024-05-09T09:12:38.079Z,100
2024-05-09T09:13:39.994Z,100
2024-05-09T09:14:41.628Z,100
2024-05-09T09:15:43.419Z,100
2024-05-09T09:16:45.338Z,100
2024-05-09T09:17:47.371Z,100
2024-05-09T09:18:50.152Z,100
2024-05-09T09:19:52.681Z,100
2024-05-09T09:20:54.749Z,100
2024-05-09T09:21:57.053Z,100
2024-05-09T09:22:59.083Z,100
2024-05-09T09:24:00.596Z,100
2024-05-09T09:25:02.490Z,100
2024-05-09T09:26:04.442Z,100
2024-05-09T09:27:06.036Z,100
2024-05-09T09:28:08.328Z,100
2024-05-09T09:29:11.598Z,100
2024-05-09T09:30:38.292Z,100
2024-05-09T09:31:40.837Z,100
2024-05-09T09:32:42.822Z,100
2024-05-09T09:33:45.873Z,100
2024-05-09T09:34:49.040Z,100
2024-05-09T09:35:51.117Z,100
2024-05-09T09:37:49.063Z,100
2024-05-09T09:38:50.560Z,100
2024-05-09T09:39:52.969Z,100
2024-05-09T09:40:55.181Z,100
2024-05-09T09:41:57.312Z,100
2024-05-09T09:42:59.150Z,100
2024-05-09T09:44:01.386Z,100
2024-05-09T09:45:06.438Z,100
2024-05-09T09:46:13.351Z,100
2024-05-09T09:47:15.821Z,100
2024-05-09T09:48:18.409Z,100
2024-05-09T09:49:20.798Z,100
2024-05-09T09:50:35.579Z,100
2024-05-09T09:51:37.512Z,100
2024-05-09T09:52:39.486Z,100
2024-05-09T09:53:40.979Z,100
2024-05-09T09:54:43.130Z,100
2024-05-09T09:55:45.235Z,100
2024-05-09T09:56:46.769Z,100
2024-05-09T09:57:48.486Z,100
2024-05-09T09:58:50.347Z,100
2024-05-09T09:59:51.849Z,100
2024-05-09T10:00:53.963Z,100
2024-05-09T10:01:57.188Z,100
2024-05-09T10:03:00.068Z,100
2024-05-09T10:04:03.991Z,100
2024-05-09T10:05:06.928Z,100
2024-05-09T10:06:09.401Z,100
2024-05-09T10:07:11.724Z,100
2024-05-09T10:08:14.337Z,100
2024-05-09T10:09:15.850Z,100
2024-05-09T10:10:33.373Z,100
2024-05-09T10:11:57.864Z,100
2024-05-09T10:13:03.172Z,100
2024-05-09T10:14:05.259Z,100
2024-05-09T10:15:06.925Z,100
2024-05-09T10:16:08.964Z,100
2024-05-09T10:17:11.250Z,100
2024-05-09T10:18:15.927Z,100
2024-05-09T10:19:19.263Z,100
2024-05-09T10:20:33.061Z,100
2024-05-09T10:21:35.893Z,100
2024-05-09T10:22:38.022Z,97
2024-05-09T10:23:39.502Z,99.7
2024-05-09T10:24:41.296Z,100
2024-05-09T10:25:43.348Z,100
2024-05-09T10:26:46.054Z,100
2024-05-09T10:27:47.704Z,100
2024-05-09T10:28:49.583Z,100
2024-05-09T10:29:51.063Z,100
2024-05-09T10:30:52.702Z,100
2024-05-09T10:31:55.859Z,100
2024-05-09T10:32:57.884Z,100
2024-05-09T10:34:01.311Z,100
2024-05-09T10:35:04.530Z,100
2024-05-09T10:36:06.995Z,95.7
2024-05-09T10:37:09.117Z,97.3
2024-05-09T10:38:11.179Z,100
2024-05-09T10:39:12.644Z,100
2024-05-09T10:40:32.008Z,100
2024-05-09T10:41:34.891Z,97.1
2024-05-09T10:42:36.804Z,99.6
2024-05-09T10:43:38.404Z,100
2024-05-09T10:44:39.913Z,96.1
2024-05-09T10:45:41.560Z,95.3
2024-05-09T10:46:43.326Z,96.9
2024-05-09T10:47:45.295Z,99.7
2024-05-09T10:48:49.661Z,99.2
2024-05-09T10:49:52.892Z,100
2024-05-09T10:50:55.097Z,100
2024-05-09T10:51:56.946Z,100
2024-05-09T10:52:58.963Z,100
2024-05-09T10:54:00.468Z,100
2024-05-09T10:55:06.297Z,100
2024-05-09T10:56:08.335Z,99.4
2024-05-09T10:57:10.048Z,100
2024-05-09T10:58:12.042Z,100
2024-05-09T10:59:14.267Z,100
2024-05-09T11:00:36.406Z,100
2024-05-09T11:01:39.192Z,100
2024-05-09T11:02:41.805Z,100
2024-05-09T11:03:45.077Z,100
2024-05-09T11:04:47.987Z,100
2024-05-09T11:05:50.716Z,100
2024-05-09T11:06:53.088Z,100
2024-05-09T11:07:55.108Z,100
2024-05-09T11:08:56.889Z,100
2024-05-09T11:09:58.723Z,99.5
2024-05-09T11:11:01.003Z,95.2
2024-05-09T11:12:02.830Z,93.8
2024-05-09T11:13:05.273Z,96.8
2024-05-09T11:14:07.319Z,99.5
2024-05-09T11:15:08.780Z,97.6
2024-05-09T11:16:10.548Z,97.2
2024-05-09T11:17:12.693Z,98.3
2024-05-09T11:18:15.069Z,100
2024-05-09T11:19:18.852Z,99.6
2024-05-09T11:20:34.997Z,97.1
2024-05-09T11:21:38.595Z,100
2024-05-09T11:22:40.542Z,100
2024-05-09T11:23:42.401Z,100
2024-05-09T11:24:44.068Z,100
2024-05-09T11:25:45.990Z,100
2024-05-09T11:26:47.635Z,100
2024-05-09T11:27:49.532Z,100
2024-05-09T11:28:51.554Z,100
2024-05-09T11:29:53.093Z,100
2024-05-09T11:30:54.980Z,100
2024-05-09T11:31:57.338Z,100
2024-05-09T11:33:00.199Z,100
2024-05-09T11:34:02.693Z,100
2024-05-09T11:35:04.580Z,100
2024-05-09T11:36:06.154Z,100
2024-05-09T11:37:08.100Z,100
2024-05-09T11:38:10.014Z,100
2024-05-09T11:39:11.499Z,100
2024-05-09T11:40:33.929Z,100
2024-05-09T11:41:36.956Z,100
2024-05-09T11:42:38.734Z,100
2024-05-09T11:43:40.705Z,100
2024-05-09T11:44:42.250Z,100
2024-05-09T11:45:44.062Z,100
2024-05-09T11:46:46.048Z,100
2024-05-09T11:47:48.219Z,100
2024-05-09T11:48:51.407Z,100
2024-05-09T11:49:54.396Z,100
2024-05-09T11:50:56.850Z,100
2024-05-09T11:51:58.706Z,100
2024-05-09T11:53:00.726Z,99.6
2024-05-09T11:54:02.199Z,100
2024-05-09T11:55:03.930Z,100
2024-05-09T11:56:06.054Z,100
2024-05-09T11:57:07.730Z,100
2024-05-09T11:58:09.737Z,100
2024-05-09T11:59:12.121Z,100
2024-05-09T12:00:37.276Z,100
2024-05-09T12:01:40.132Z,100
2024-05-09T12:02:42.403Z,100
2024-05-09T12:03:44.642Z,100
2024-05-09T12:04:47.402Z,100
2024-05-09T12:05:50.971Z,100
2024-05-09T12:06:53.695Z,98.8
2024-05-09T12:07:55.835Z,98.3
2024-05-09T12:08:57.275Z,97.5
2024-05-09T12:09:58.990Z,99.8
2024-05-09T12:11:01.953Z,100
2024-05-09T12:12:04.364Z,100
2024-05-09T12:13:08.469Z,98.9
2024-05-09T12:14:10.561Z,96.2
2024-05-09T12:15:12.075Z,100
2024-05-09T12:16:14.160Z,97.9
2024-05-09T12:17:16.889Z,96.1
2024-05-09T12:18:19.457Z,96.6
2024-05-09T12:19:21.800Z,96.5
2024-05-09T12:20:40.139Z,100
2024-05-09T12:21:42.616Z,100
2024-05-09T12:22:44.663Z,100
2024-05-09T12:23:46.213Z,100
2024-05-09T12:24:48.179Z,96.6
2024-05-09T12:25:50.163Z,97.1
2024-05-09T12:26:51.644Z,100
2024-05-09T12:27:53.431Z,100
2024-05-09T12:28:55.372Z,100
2024-05-09T12:29:57.043Z,99.2
2024-05-09T12:30:58.787Z,99.4
2024-05-09T12:32:01.220Z,99.8
2024-05-09T12:33:03.686Z,96.5
2024-05-09T12:34:07.090Z,94.9
2024-05-09T12:35:09.312Z,94.8
2024-05-09T12:36:10.943Z,97.2
2024-05-09T12:37:13.017Z,95.9
2024-05-09T12:38:16.033Z,95.3
2024-05-09T12:39:17.628Z,96.3
2024-05-09T12:40:38.908Z,96.7
2024-05-09T12:41:41.907Z,94.9
2024-05-09T12:42:43.786Z,98.9
2024-05-09T12:43:45.863Z,98.9
2024-05-09T12:44:47.362Z,100
2024-05-09T12:45:49.232Z,94.9
2024-05-09T12:46:51.233Z,95.2
2024-05-09T12:47:53.035Z,97.6
2024-05-09T12:48:56.232Z,92.9
2024-05-09T12:49:59.186Z,90.6
2024-05-09T12:51:01.091Z,92.6
2024-05-09T12:52:03.080Z,91.2
2024-05-09T12:53:05.848Z,89.1
2024-05-09T12:54:07.427Z,93.4
2024-05-09T12:55:09.523Z,95.7
2024-05-09T12:56:12.100Z,94.9
2024-05-09T12:57:13.595Z,94.8
2024-05-09T12:58:15.617Z,93.2
2024-05-09T12:59:19.000Z,96.8
2024-05-09T13:00:34.663Z,97.6
2024-05-09T13:01:37.216Z,97.3
2024-05-09T13:02:40.092Z,100
2024-05-09T13:03:42.996Z,100
2024-05-09T13:04:45.767Z,100
2024-05-09T13:05:48.268Z,99.2
2024-05-09T13:06:50.710Z,99.3
2024-05-09T13:07:52.661Z,99.1
2024-05-09T13:08:54.223Z,100
2024-05-09T13:09:56.141Z,99.9
2024-05-09T13:10:58.199Z,98.8
2024-05-09T13:12:00.346Z,98.9
2024-05-09T13:13:03.042Z,98.1
2024-05-09T13:14:05.632Z,98.6
2024-05-09T13:15:07.225Z,98.9
2024-05-09T13:16:08.900Z,99.2
2024-05-09T13:17:11.038Z,97.3
2024-05-09T13:18:13.118Z,99.8
2024-05-09T13:19:15.348Z,97.9
2024-05-09T13:20:34.942Z,98.7
2024-05-09T13:21:39.109Z,99.1
2024-05-09T13:22:41.058Z,100
2024-05-09T13:23:42.600Z,100
2024-05-09T13:24:44.299Z,99.8
2024-05-09T13:25:46.307Z,99.4
2024-05-09T13:26:47.804Z,98.7
2024-05-09T13:27:49.451Z,97.6
2024-05-09T13:28:51.021Z,97.8
2024-05-09T13:29:52.494Z,98.7
2024-05-09T13:30:54.459Z,100
2024-05-09T13:31:56.666Z,100
2024-05-09T13:32:58.691Z,100
2024-05-09T13:34:01.545Z,98.6
2024-05-09T13:35:04.334Z,98.7
2024-05-09T13:36:05.839Z,97.4
2024-05-09T13:37:07.751Z,95.3
2024-05-09T13:38:09.822Z,91.6
2024-05-09T13:39:11.289Z,91.2
2024-05-09T13:40:23.189Z,91.7
2024-05-09T13:41:38.106Z,93.2
2024-05-09T13:42:39.897Z,95.8
2024-05-09T13:43:41.892Z,94.3
2024-05-09T13:44:43.409Z,94.3
2024-05-09T13:45:45.273Z,94.1
2024-05-09T13:46:47.688Z,94.1
2024-05-09T13:47:50.094Z,97.8
2024-05-09T13:48:53.493Z,97.4
2024-05-09T13:49:56.201Z,95.8
2024-05-09T13:50:57.711Z,93.2
2024-05-09T13:51:59.519Z,94.8
2024-05-09T13:53:01.381Z,96.6
2024-05-09T13:54:03.622Z,95.8
2024-05-09T13:55:05.661Z,95.3
2024-05-09T13:56:07.588Z,95.6
2024-05-09T13:57:09.117Z,95.6
2024-05-09T13:58:10.945Z,96.3
2024-05-09T13:59:12.943Z,96.8
2024-05-09T14:00:47.860Z,94.7
2024-05-09T14:01:51.800Z,95
2024-05-09T14:04:30.316Z,91.9
2024-05-09T14:05:33.905Z,95.8
2024-05-09T14:06:37.157Z,95.9
2024-05-09T14:07:39.116Z,96.8
2024-05-09T14:08:40.619Z,94.2
2024-05-09T14:09:42.427Z,96.3
2024-05-09T14:10:45.720Z,95.6
2024-05-09T14:11:48.689Z,92.9
2024-05-09T14:12:51.291Z,89.9
2024-05-09T14:13:53.226Z,92.4
2024-05-09T14:14:54.730Z,86.8
2024-05-09T14:15:57.488Z,89.5
2024-05-09T14:17:00.671Z,93.4
2024-05-09T14:18:03.256Z,88.6
2024-05-09T14:19:05.252Z,88.1
2024-05-09T14:20:19.428Z,90
2024-05-09T14:21:34.468Z,87.4
2024-05-09T14:22:36.463Z,86.4
2024-05-09T14:23:38.031Z,89.1
2024-05-09T14:24:39.715Z,87.3
2024-05-09T14:25:47.210Z,87.1
2024-05-09T14:26:54.202Z,88.5
2024-05-09T14:27:56.306Z,90.3
2024-05-09T14:28:58.607Z,94.9
2024-05-09T14:30:00.785Z,93.7
2024-05-09T14:31:02.522Z,92.5
2024-05-09T14:32:04.539Z,94.3
2024-05-09T14:33:09.633Z,94.3
2024-05-09T14:34:13.113Z,93.2
2024-05-09T14:35:15.808Z,93.6
2024-05-09T14:36:17.831Z,95.3
2024-05-09T14:37:19.676Z,98.8
2024-05-09T14:38:21.651Z,98.7
2024-05-09T14:39:23.144Z,100
2024-05-09T14:40:44.338Z,100